sensor_id;sensor_type;location;lat;lon;timestamp;temperature;humidity
57652;DHT22;43480;53.116;6.734;2024-03-23T00:52:58;6.50;99.90
57652;DHT22;43480;53.116;6.734;2024-03-23T00:55:24;6.40;99.90
57652;DHT22;43480;53.116;6.734;2024-03-23T00:57:50;6.40;99.90
57652;DHT22;43480;53.116;6.734;2024-03-23T01:00:15;6.30;99.90
57652;DHT22;43480;53.116;6.734;2024-03-23T01:02:41;6.30;99.90
57652;DHT22;43480;53.116;6.734;2024-03-23T01:05:07;6.30;99.90
57652;DHT22;43480;53.116;6.734;2024-03-23T01:07:32;6.20;99.90
57652;DHT22;43480;53.116;6.734;2024-03-23T01:09:58;6.20;99.90
57652;DHT22;43480;53.116;6.734;2024-03-23T01:12:24;6.10;99.90
57652;DHT22;43480;53.116;6.734;2024-03-23T01:14:49;6.10;99.90
57652;DHT22;43480;53.116;6.734;2024-03-23T01:17:15;6.10;99.90
57652;DHT22;43480;53.116;6.734;2024-03-23T01:19:40;6.00;99.90
57652;DHT22;43480;53.116;6.734;2024-03-23T01:22:07;6.00;99.90
57652;DHT22;43480;53.116;6.734;2024-03-23T01:24:33;6.00;99.90
57652;DHT22;43480;53.116;6.734;2024-03-23T01:26:58;5.90;99.90
57652;DHT22;43480;53.116;6.734;2024-03-23T01:29:24;5.90;99.90
57652;DHT22;43480;53.116;6.734;2024-03-23T01:31:49;5.90;99.90
57652;DHT22;43480;53.116;6.734;2024-03-23T01:34:15;5.80;99.90
57652;DHT22;43480;53.116;6.734;2024-03-23T01:36:41;5.80;99.90
57652;DHT22;43480;53.116;6.734;2024-03-23T01:39:06;5.70;99.90
57652;DHT22;43480;53.116;6.734;2024-03-23T01:41:35;5.80;99.90
57652;DHT22;43480;53.116;6.734;2024-03-23T01:44:05;5.70;99.90
57652;DHT22;43480;53.116;6.734;2024-03-23T01:46:32;5.70;99.90
57652;DHT22;43480;53.116;6.734;2024-03-23T01:48:58;5.70;99.90
57652;DHT22;43480;53.116;6.734;2024-03-23T01:51:24;5.70;99.90
57652;DHT22;43480;53.116;6.734;2024-03-23T01:53:51;5.60;99.90
57652;DHT22;43480;53.116;6.734;2024-03-23T01:56:18;5.60;99.90
57652;DHT22;43480;53.116;6.734;2024-03-23T01:58:44;5.60;99.90
57652;DHT22;43480;53.116;6.734;2024-03-23T02:01:10;5.60;99.90
57652;DHT22;43480;53.116;6.734;2024-03-23T02:03:36;5.50;99.90
57652;DHT22;43480;53.116;6.734;2024-03-23T02:06:02;5.50;99.90
57652;DHT22;43480;53.116;6.734;2024-03-23T02:08:28;5.50;99.90
57652;DHT22;43480;53.116;6.734;2024-03-23T02:10:54;5.50;99.90
57652;DHT22;43480;53.116;6.734;2024-03-23T02:13:20;5.50;99.90
57652;DHT22;43480;53.116;6.734;2024-03-23T02:15:46;5.40;99.90
57652;DHT22;43480;53.116;6.734;2024-03-23T02:18:12;5.40;99.90
57652;DHT22;43480;53.116;6.734;2024-03-23T02:20:38;5.40;99.90
57652;DHT22;43480;53.116;6.734;2024-03-23T02:23:16;5.40;99.90
57652;DHT22;43480;53.116;6.734;2024-03-23T02:25:43;5.40;99.90
57652;DHT22;43480;53.116;6.734;2024-03-23T02:28:09;5.40;99.90
57652;DHT22;43480;53.116;6.734;2024-03-23T02:30:34;5.30;99.90
57652;DHT22;43480;53.116;6.734;2024-03-23T02:33:00;5.20;99.90
57652;DHT22;43480;53.116;6.734;2024-03-23T02:35:26;5.20;99.90
57652;DHT22;43480;53.116;6.734;2024-03-23T02:37:52;5.20;99.90
57652;DHT22;43480;53.116;6.734;2024-03-23T02:40:19;5.20;99.90
57652;DHT22;43480;53.116;6.734;2024-03-23T02:42:45;5.10;99.90
57652;DHT22;43480;53.116;6.734;2024-03-23T02:45:10;5.20;99.90
57652;DHT22;43480;53.116;6.734;2024-03-23T02:47:36;5.20;99.90
57652;DHT22;43480;53.116;6.734;2024-03-23T02:50:02;5.10;99.90
57652;DHT22;43480;53.116;6.734;2024-03-23T02:52:27;5.10;99.90
57652;DHT22;43480;53.116;6.734;2024-03-23T02:54:53;5.10;99.90
57652;DHT22;43480;53.116;6.734;2024-03-23T02:57:19;5.00;99.90
57652;DHT22;43480;53.116;6.734;2024-03-23T02:59:44;5.00;99.90
57652;DHT22;43480;53.116;6.734;2024-03-23T03:02:12;5.00;99.90
57652;DHT22;43480;53.116;6.734;2024-03-23T03:04:38;5.00;99.90
57652;DHT22;43480;53.116;6.734;2024-03-23T03:07:04;5.00;99.90
57652;DHT22;43480;53.116;6.734;2024-03-23T03:09:29;5.10;99.90
57652;DHT22;43480;53.116;6.734;2024-03-23T03:11:55;5.10;99.90
57652;DHT22;43480;53.116;6.734;2024-03-23T03:14:21;5.10;99.90
57652;DHT22;43480;53.116;6.734;2024-03-23T03:16:47;5.20;99.90
57652;DHT22;43480;53.116;6.734;2024-03-23T03:19:12;5.10;99.90
57652;DHT22;43480;53.116;6.734;2024-03-23T03:21:38;5.10;99.90
57652;DHT22;43480;53.116;6.734;2024-03-23T03:24:06;5.10;99.90
57652;DHT22;43480;53.116;6.734;2024-03-23T03:26:32;5.10;99.90
57652;DHT22;43480;53.116;6.734;2024-03-23T03:28:57;5.00;99.90
57652;DHT22;43480;53.116;6.734;2024-03-23T03:31:23;5.00;99.90
57652;DHT22;43480;53.116;6.734;2024-03-23T03:33:50;4.90;99.90
57652;DHT22;43480;53.116;6.734;2024-03-23T03:36:18;4.90;99.90
57652;DHT22;43480;53.116;6.734;2024-03-23T03:38:44;4.90;99.90
57652;DHT22;43480;53.116;6.734;2024-03-23T03:41:10;4.90;99.90
57652;DHT22;43480;53.116;6.734;2024-03-23T03:43:36;4.90;99.90
57652;DHT22;43480;53.116;6.734;2024-03-23T03:46:02;4.80;99.90
57652;DHT22;43480;53.116;6.734;2024-03-23T03:48:28;4.80;99.90
57652;DHT22;43480;53.116;6.734;2024-03-23T03:50:54;4.80;99.90
57652;DHT22;43480;53.116;6.734;2024-03-23T03:53:20;4.80;99.90
57652;DHT22;43480;53.116;6.734;2024-03-23T03:55:45;4.80;99.90
57652;DHT22;43480;53.116;6.734;2024-03-23T03:58:11;4.80;99.90
57652;DHT22;43480;53.116;6.734;2024-03-23T04:00:37;4.70;99.90
57652;DHT22;43480;53.116;6.734;2024-03-23T04:03:03;4.80;99.90
57652;DHT22;43480;53.116;6.734;2024-03-23T04:05:29;4.70;99.90
57652;DHT22;43480;53.116;6.734;2024-03-23T04:07:54;4.70;99.90
57652;DHT22;43480;53.116;6.734;2024-03-23T04:10:20;4.60;99.90
57652;DHT22;43480;53.116;6.734;2024-03-23T04:12:47;4.70;99.90
57652;DHT22;43480;53.116;6.734;2024-03-23T04:15:13;4.70;99.90
57652;DHT22;43480;53.116;6.734;2024-03-23T04:17:39;4.60;99.90
57652;DHT22;43480;53.116;6.734;2024-03-23T04:20:05;4.60;99.90
57652;DHT22;43480;53.116;6.734;2024-03-23T04:22:34;4.60;99.90
57652;DHT22;43480;53.116;6.734;2024-03-23T04:25:01;4.60;99.90
57652;DHT22;43480;53.116;6.734;2024-03-23T04:27:39;4.60;99.90
57652;DHT22;43480;53.116;6.734;2024-03-23T04:30:05;4.60;99.90
57652;DHT22;43480;53.116;6.734;2024-03-23T04:32:36;4.60;99.90
57652;DHT22;43480;53.116;6.734;2024-03-23T04:35:02;4.60;99.90
57652;DHT22;43480;53.116;6.734;2024-03-23T04:37:34;4.60;99.90
57652;DHT22;43480;53.116;6.734;2024-03-23T04:40:00;4.50;99.90
57652;DHT22;43480;53.116;6.734;2024-03-23T04:42:27;4.50;99.90
57652;DHT22;43480;53.116;6.734;2024-03-23T04:44:53;4.50;99.90
57652;DHT22;43480;53.116;6.734;2024-03-23T04:47:19;4.50;99.90
57652;DHT22;43480;53.116;6.734;2024-03-23T04:49:44;4.50;99.90
57652;DHT22;43480;53.116;6.734;2024-03-23T04:52:10;4.50;99.90
57652;DHT22;43480;53.116;6.734;2024-03-23T04:54:35;4.50;99.90
57652;DHT22;43480;53.116;6.734;2024-03-23T04:57:01;4.60;99.90
57652;DHT22;43480;53.116;6.734;2024-03-23T04:59:27;4.60;99.90
57652;DHT22;43480;53.116;6.734;2024-03-23T05:01:52;4.60;99.90
57652;DHT22;43480;53.116;6.734;2024-03-23T05:04:18;4.60;99.90
57652;DHT22;43480;53.116;6.734;2024-03-23T05:06:44;4.50;99.90
57652;DHT22;43480;53.116;6.734;2024-03-23T05:09:09;4.60;99.90
57652;DHT22;43480;53.116;6.734;2024-03-23T05:11:40;4.60;99.90
57652;DHT22;43480;53.116;6.734;2024-03-23T05:14:07;4.50;99.90
57652;DHT22;43480;53.116;6.734;2024-03-23T05:16:33;4.50;99.90
57652;DHT22;43480;53.116;6.734;2024-03-23T05:18:59;4.50;99.90
57652;DHT22;43480;53.116;6.734;2024-03-23T05:21:25;4.50;99.90
57652;DHT22;43480;53.116;6.734;2024-03-23T05:23:50;4.50;99.90
57652;DHT22;43480;53.116;6.734;2024-03-23T05:26:17;4.50;99.90
57652;DHT22;43480;53.116;6.734;2024-03-23T05:28:42;4.50;99.90
57652;DHT22;43480;53.116;6.734;2024-03-23T05:31:09;4.50;99.90
57652;DHT22;43480;53.116;6.734;2024-03-23T05:33:38;4.50;99.90
57652;DHT22;43480;53.116;6.734;2024-03-23T05:36:04;4.50;99.90
57652;DHT22;43480;53.116;6.734;2024-03-23T05:38:30;4.50;99.90
57652;DHT22;43480;53.116;6.734;2024-03-23T05:40:59;4.50;99.90
57652;DHT22;43480;53.116;6.734;2024-03-23T05:43:26;4.50;99.90
57652;DHT22;43480;53.116;6.734;2024-03-23T05:46:01;4.50;99.90
57652;DHT22;43480;53.116;6.734;2024-03-23T05:48:31;4.50;99.90
57652;DHT22;43480;53.116;6.734;2024-03-23T05:50:57;4.50;99.90
57652;DHT22;43480;53.116;6.734;2024-03-23T05:53:23;4.50;99.90
57652;DHT22;43480;53.116;6.734;2024-03-23T05:55:50;4.50;99.90
57652;DHT22;43480;53.116;6.734;2024-03-23T05:58:17;4.60;99.90
57652;DHT22;43480;53.116;6.734;2024-03-23T06:00:43;4.60;99.90
57652;DHT22;43480;53.116;6.734;2024-03-23T06:03:09;4.60;99.90
57652;DHT22;43480;53.116;6.734;2024-03-23T06:05:38;4.70;99.90
57652;DHT22;43480;53.116;6.734;2024-03-23T06:08:04;4.70;99.90
57652;DHT22;43480;53.116;6.734;2024-03-23T06:10:30;4.80;99.90
57652;DHT22;43480;53.116;6.734;2024-03-23T06:12:57;4.90;99.90
57652;DHT22;43480;53.116;6.734;2024-03-23T06:15:24;5.00;99.90
57652;DHT22;43480;53.116;6.734;2024-03-23T06:17:49;5.10;99.90
57652;DHT22;43480;53.116;6.734;2024-03-23T06:20:15;5.20;99.90
57652;DHT22;43480;53.116;6.734;2024-03-23T06:22:41;5.40;99.90
57652;DHT22;43480;53.116;6.734;2024-03-23T06:25:07;5.60;99.90
57652;DHT22;43480;53.116;6.734;2024-03-23T06:27:32;5.70;99.90
57652;DHT22;43480;53.116;6.734;2024-03-23T06:29:59;5.60;99.90
57652;DHT22;43480;53.116;6.734;2024-03-23T06:32:25;5.40;99.90
57652;DHT22;43480;53.116;6.734;2024-03-23T06:34:50;5.30;99.90
57652;DHT22;43480;53.116;6.734;2024-03-23T06:37:16;5.20;99.90
57652;DHT22;43480;53.116;6.734;2024-03-23T06:39:42;5.20;99.90
57652;DHT22;43480;53.116;6.734;2024-03-23T06:42:07;5.20;99.90
57652;DHT22;43480;53.116;6.734;2024-03-23T06:44:33;5.10;99.90
57652;DHT22;43480;53.116;6.734;2024-03-23T06:46:59;5.20;99.90
57652;DHT22;43480;53.116;6.734;2024-03-23T06:49:25;5.10;99.90
57652;DHT22;43480;53.116;6.734;2024-03-23T06:51:51;5.20;99.90
57652;DHT22;43480;53.116;6.734;2024-03-23T06:54:18;5.30;99.90
57652;DHT22;43480;53.116;6.734;2024-03-23T06:56:44;5.50;99.90
57652;DHT22;43480;53.116;6.734;2024-03-23T06:59:10;5.50;99.90
57652;DHT22;43480;53.116;6.734;2024-03-23T07:01:36;5.50;99.90
57652;DHT22;43480;53.116;6.734;2024-03-23T07:04:01;5.50;99.90
57652;DHT22;43480;53.116;6.734;2024-03-23T07:06:28;5.30;99.90
57652;DHT22;43480;53.116;6.734;2024-03-23T07:08:53;5.30;99.90
57652;DHT22;43480;53.116;6.734;2024-03-23T07:11:23;5.20;99.90
57652;DHT22;43480;53.116;6.734;2024-03-23T07:13:52;5.20;99.90
57652;DHT22;43480;53.116;6.734;2024-03-23T07:16:21;5.20;99.90
57652;DHT22;43480;53.116;6.734;2024-03-23T07:18:47;5.20;99.90
57652;DHT22;43480;53.116;6.734;2024-03-23T07:21:14;5.30;99.90
57652;DHT22;43480;53.116;6.734;2024-03-23T07:23:42;5.60;99.90
57652;DHT22;43480;53.116;6.734;2024-03-23T07:26:10;5.70;99.90
57652;DHT22;43480;53.116;6.734;2024-03-23T07:28:36;5.80;99.90
57652;DHT22;43480;53.116;6.734;2024-03-23T07:31:07;5.90;99.90
57652;DHT22;43480;53.116;6.734;2024-03-23T07:33:36;5.90;99.90
57652;DHT22;43480;53.116;6.734;2024-03-23T07:36:02;6.00;99.90
57652;DHT22;43480;53.116;6.734;2024-03-23T07:38:29;6.00;99.90
57652;DHT22;43480;53.116;6.734;2024-03-23T07:41:07;6.00;99.90
57652;DHT22;43480;53.116;6.734;2024-03-23T07:43:33;6.10;99.90
57652;DHT22;43480;53.116;6.734;2024-03-23T07:45:59;6.20;99.90
57652;DHT22;43480;53.116;6.734;2024-03-23T07:48:25;6.30;99.90
57652;DHT22;43480;53.116;6.734;2024-03-23T07:51:01;6.30;99.90
57652;DHT22;43480;53.116;6.734;2024-03-23T07:53:28;6.40;99.90
57652;DHT22;43480;53.116;6.734;2024-03-23T07:55:58;6.50;99.90
57652;DHT22;43480;53.116;6.734;2024-03-23T07:58:25;6.60;99.90
57652;DHT22;43480;53.116;6.734;2024-03-23T08:00:52;6.80;99.90
57652;DHT22;43480;53.116;6.734;2024-03-23T08:03:17;6.90;99.90
57652;DHT22;43480;53.116;6.734;2024-03-23T08:05:43;7.00;99.90
57652;DHT22;43480;53.116;6.734;2024-03-23T08:08:09;7.10;99.90
57652;DHT22;43480;53.116;6.734;2024-03-23T08:10:35;7.00;99.90
57652;DHT22;43480;53.116;6.734;2024-03-23T08:13:00;7.00;99.90
57652;DHT22;43480;53.116;6.734;2024-03-23T08:15:26;6.90;99.90
57652;DHT22;43480;53.116;6.734;2024-03-23T08:17:52;6.80;99.90
57652;DHT22;43480;53.116;6.734;2024-03-23T08:20:17;6.80;99.90
57652;DHT22;43480;53.116;6.734;2024-03-23T08:22:43;6.70;99.90
57652;DHT22;43480;53.116;6.734;2024-03-23T08:25:08;6.80;99.90
57652;DHT22;43480;53.116;6.734;2024-03-23T08:27:34;6.80;99.90
57652;DHT22;43480;53.116;6.734;2024-03-23T08:30:00;7.00;99.90
57652;DHT22;43480;53.116;6.734;2024-03-23T08:32:25;7.20;99.90
57652;DHT22;43480;53.116;6.734;2024-03-23T08:34:51;7.40;99.90
57652;DHT22;43480;53.116;6.734;2024-03-23T08:37:16;7.50;99.90
57652;DHT22;43480;53.116;6.734;2024-03-23T08:39:43;7.50;99.90
57652;DHT22;43480;53.116;6.734;2024-03-23T08:42:09;7.30;99.90
57652;DHT22;43480;53.116;6.734;2024-03-23T08:44:35;7.20;99.90
57652;DHT22;43480;53.116;6.734;2024-03-23T08:47:01;7.20;99.90
57652;DHT22;43480;53.116;6.734;2024-03-23T08:49:27;7.10;99.90
57652;DHT22;43480;53.116;6.734;2024-03-23T08:51:53;7.10;99.90
57652;DHT22;43480;53.116;6.734;2024-03-23T08:54:19;7.20;99.90
57652;DHT22;43480;53.116;6.734;2024-03-23T08:56:46;7.40;99.90
57652;DHT22;43480;53.116;6.734;2024-03-23T08:59:11;7.60;99.90
57652;DHT22;43480;53.116;6.734;2024-03-23T09:01:37;7.80;99.90
57652;DHT22;43480;53.116;6.734;2024-03-23T09:04:03;8.00;99.90
57652;DHT22;43480;53.116;6.734;2024-03-23T09:06:29;8.10;99.90
57652;DHT22;43480;53.116;6.734;2024-03-23T09:08:55;8.30;99.90
57652;DHT22;43480;53.116;6.734;2024-03-23T09:11:21;8.40;99.90
57652;DHT22;43480;53.116;6.734;2024-03-23T09:13:47;8.50;99.90
57652;DHT22;43480;53.116;6.734;2024-03-23T09:16:12;8.50;99.90
57652;DHT22;43480;53.116;6.734;2024-03-23T09:18:38;8.60;99.90
57652;DHT22;43480;53.116;6.734;2024-03-23T09:21:10;8.60;99.90
57652;DHT22;43480;53.116;6.734;2024-03-23T09:23:36;8.80;99.90
57652;DHT22;43480;53.116;6.734;2024-03-23T09:26:05;9.00;99.90
57652;DHT22;43480;53.116;6.734;2024-03-23T09:28:33;9.00;99.90
57652;DHT22;43480;53.116;6.734;2024-03-23T09:31:08;9.00;99.90
57652;DHT22;43480;53.116;6.734;2024-03-23T09:33:35;8.90;99.90
57652;DHT22;43480;53.116;6.734;2024-03-23T09:36:05;8.90;99.90
57652;DHT22;43480;53.116;6.734;2024-03-23T09:38:31;8.80;99.90
57652;DHT22;43480;53.116;6.734;2024-03-23T09:40:57;8.70;99.90
57652;DHT22;43480;53.116;6.734;2024-03-23T09:43:23;8.60;99.90
57652;DHT22;43480;53.116;6.734;2024-03-23T09:45:49;8.50;99.90
57652;DHT22;43480;53.116;6.734;2024-03-23T09:48:15;8.40;99.90
57652;DHT22;43480;53.116;6.734;2024-03-23T09:50:45;8.30;99.90
57652;DHT22;43480;53.116;6.734;2024-03-23T09:53:12;8.30;99.90
57652;DHT22;43480;53.116;6.734;2024-03-23T09:55:42;8.50;99.90
57652;DHT22;43480;53.116;6.734;2024-03-23T09:58:12;8.80;99.90
57652;DHT22;43480;53.116;6.734;2024-03-23T10:00:38;8.90;99.90
57652;DHT22;43480;53.116;6.734;2024-03-23T10:03:04;8.60;99.90
57652;DHT22;43480;53.116;6.734;2024-03-23T10:05:32;8.00;99.90
57652;DHT22;43480;53.116;6.734;2024-03-23T10:08:18;7.40;99.90
57652;DHT22;43480;53.116;6.734;2024-03-23T10:10:45;7.00;99.90
57652;DHT22;43480;53.116;6.734;2024-03-23T10:13:11;6.70;99.90
57652;DHT22;43480;53.116;6.734;2024-03-23T10:15:57;6.50;99.90
57652;DHT22;43480;53.116;6.734;2024-03-23T10:18:24;6.40;99.90
57652;DHT22;43480;53.116;6.734;2024-03-23T10:23:36;6.40;99.90
57652;DHT22;43480;53.116;6.734;2024-03-23T10:26:15;6.40;99.90
57652;DHT22;43480;53.116;6.734;2024-03-23T10:29:01;6.50;99.90
57652;DHT22;43480;53.116;6.734;2024-03-23T10:31:31;6.50;99.90
57652;DHT22;43480;53.116;6.734;2024-03-23T10:33:57;6.50;99.90
57652;DHT22;43480;53.116;6.734;2024-03-23T10:36:23;6.70;99.90
57652;DHT22;43480;53.116;6.734;2024-03-23T10:38:50;7.10;99.90
57652;DHT22;43480;53.116;6.734;2024-03-23T10:41:18;7.40;99.90
57652;DHT22;43480;53.116;6.734;2024-03-23T10:43:46;7.80;99.90
57652;DHT22;43480;53.116;6.734;2024-03-23T10:46:11;8.20;99.90
57652;DHT22;43480;53.116;6.734;2024-03-23T10:48:37;8.50;99.90
57652;DHT22;43480;53.116;6.734;2024-03-23T10:51:05;8.80;99.90
57652;DHT22;43480;53.116;6.734;2024-03-23T10:53:34;9.00;99.90
57652;DHT22;43480;53.116;6.734;2024-03-23T10:56:00;9.20;99.90
57652;DHT22;43480;53.116;6.734;2024-03-23T10:58:39;9.40;99.90
57652;DHT22;43480;53.116;6.734;2024-03-23T11:01:05;9.50;99.90
57652;DHT22;43480;53.116;6.734;2024-03-23T11:03:36;9.40;99.90
57652;DHT22;43480;53.116;6.734;2024-03-23T11:06:03;9.40;99.90
57652;DHT22;43480;53.116;6.734;2024-03-23T11:08:40;9.00;99.90
57652;DHT22;43480;53.116;6.734;2024-03-23T11:13:43;8.20;99.90
57652;DHT22;43480;53.116;6.734;2024-03-23T11:18:41;7.40;99.90
57652;DHT22;43480;53.116;6.734;2024-03-23T11:21:08;7.00;99.90
57652;DHT22;43480;53.116;6.734;2024-03-23T11:23:33;6.90;99.90
57652;DHT22;43480;53.116;6.734;2024-03-23T11:25:59;7.00;99.90
57652;DHT22;43480;53.116;6.734;2024-03-23T11:28:25;7.20;99.90
57652;DHT22;43480;53.116;6.734;2024-03-23T11:30:50;7.40;99.90
57652;DHT22;43480;53.116;6.734;2024-03-23T11:33:16;7.30;99.90
57652;DHT22;43480;53.116;6.734;2024-03-23T11:35:42;7.20;99.90
57652;DHT22;43480;53.116;6.734;2024-03-23T11:38:16;7.20;99.90
57652;DHT22;43480;53.116;6.734;2024-03-23T11:40:46;7.50;99.90
57652;DHT22;43480;53.116;6.734;2024-03-23T11:43:17;7.70;99.90
57652;DHT22;43480;53.116;6.734;2024-03-23T11:45:47;7.90;99.90
57652;DHT22;43480;53.116;6.734;2024-03-23T11:48:15;8.10;99.90
57652;DHT22;43480;53.116;6.734;2024-03-23T11:50:44;8.30;99.90
57652;DHT22;43480;53.116;6.734;2024-03-23T11:53:14;8.40;99.90
57652;DHT22;43480;53.116;6.734;2024-03-23T11:55:59;8.50;99.90
57652;DHT22;43480;53.116;6.734;2024-03-23T11:58:26;8.60;99.90
57652;DHT22;43480;53.116;6.734;2024-03-23T12:01:02;8.80;99.90
57652;DHT22;43480;53.116;6.734;2024-03-23T12:03:29;8.60;99.90
57652;DHT22;43480;53.116;6.734;2024-03-23T12:05:58;8.70;99.90
57652;DHT22;43480;53.116;6.734;2024-03-23T12:08:32;8.90;99.90
57652;DHT22;43480;53.116;6.734;2024-03-23T12:13:33;8.80;99.90
57652;DHT22;43480;53.116;6.734;2024-03-23T12:16:17;8.30;99.90
57652;DHT22;43480;53.116;6.734;2024-03-23T12:18:44;7.60;99.90
57652;DHT22;43480;53.116;6.734;2024-03-23T12:21:10;7.30;99.90
57652;DHT22;43480;53.116;6.734;2024-03-23T12:23:36;7.00;99.90
57652;DHT22;43480;53.116;6.734;2024-03-23T12:26:04;6.90;99.90
57652;DHT22;43480;53.116;6.734;2024-03-23T12:28:29;6.80;99.90
57652;DHT22;43480;53.116;6.734;2024-03-23T12:30:57;6.70;99.90
57652;DHT22;43480;53.116;6.734;2024-03-23T12:33:25;6.80;99.90
57652;DHT22;43480;53.116;6.734;2024-03-23T12:35:51;6.90;99.90
57652;DHT22;43480;53.116;6.734;2024-03-23T12:38:17;7.10;99.90
57652;DHT22;43480;53.116;6.734;2024-03-23T12:40:50;7.20;99.90
57652;DHT22;43480;53.116;6.734;2024-03-23T12:43:16;7.10;99.90
57652;DHT22;43480;53.116;6.734;2024-03-23T12:45:49;7.00;99.90
57652;DHT22;43480;53.116;6.734;2024-03-23T12:48:15;7.00;99.90
57652;DHT22;43480;53.116;6.734;2024-03-23T12:50:41;7.00;99.90
57652;DHT22;43480;53.116;6.734;2024-03-23T12:53:07;7.10;99.90
57652;DHT22;43480;53.116;6.734;2024-03-23T12:55:35;7.30;99.90
57652;DHT22;43480;53.116;6.734;2024-03-23T12:58:01;7.70;99.90
57652;DHT22;43480;53.116;6.734;2024-03-23T13:00:27;8.00;99.90
57652;DHT22;43480;53.116;6.734;2024-03-23T13:02:52;7.90;99.90
57652;DHT22;43480;53.116;6.734;2024-03-23T13:05:18;7.80;99.90
57652;DHT22;43480;53.116;6.734;2024-03-23T13:07:44;7.90;99.90
57652;DHT22;43480;53.116;6.734;2024-03-23T13:10:09;8.00;99.90
57652;DHT22;43480;53.116;6.734;2024-03-23T13:12:35;8.00;99.90
57652;DHT22;43480;53.116;6.734;2024-03-23T13:15:01;8.30;99.90
57652;DHT22;43480;53.116;6.734;2024-03-23T13:17:27;8.40;99.90
57652;DHT22;43480;53.116;6.734;2024-03-23T13:19:56;8.30;99.90
57652;DHT22;43480;53.116;6.734;2024-03-23T13:22:22;8.30;99.90
57652;DHT22;43480;53.116;6.734;2024-03-23T13:24:48;8.40;99.90
57652;DHT22;43480;53.116;6.734;2024-03-23T13:27:13;8.60;99.90
57652;DHT22;43480;53.116;6.734;2024-03-23T13:29:39;8.80;99.90
57652;DHT22;43480;53.116;6.734;2024-03-23T13:32:05;8.80;99.90
57652;DHT22;43480;53.116;6.734;2024-03-23T13:34:31;8.70;99.90
57652;DHT22;43480;53.116;6.734;2024-03-23T13:36:58;8.70;99.90
57652;DHT22;43480;53.116;6.734;2024-03-23T13:39:24;8.90;99.90
57652;DHT22;43480;53.116;6.734;2024-03-23T13:41:50;9.20;99.90
57652;DHT22;43480;53.116;6.734;2024-03-23T13:44:16;9.40;99.90
57652;DHT22;43480;53.116;6.734;2024-03-23T13:46:42;9.70;99.90
57652;DHT22;43480;53.116;6.734;2024-03-23T13:49:29;9.90;99.90
57652;DHT22;43480;53.116;6.734;2024-03-23T13:51:56;10.10;99.90
57652;DHT22;43480;53.116;6.734;2024-03-23T13:54:27;10.20;99.90
57652;DHT22;43480;53.116;6.734;2024-03-23T13:56:56;10.30;99.90
57652;DHT22;43480;53.116;6.734;2024-03-23T13:59:22;10.10;99.90
57652;DHT22;43480;53.116;6.734;2024-03-23T14:01:48;9.90;99.90
57652;DHT22;43480;53.116;6.734;2024-03-23T14:04:14;9.40;99.90
57652;DHT22;43480;53.116;6.734;2024-03-23T14:06:44;8.60;99.90
57652;DHT22;43480;53.116;6.734;2024-03-23T14:09:12;7.80;99.90
57652;DHT22;43480;53.116;6.734;2024-03-23T14:11:37;7.40;99.90
57652;DHT22;43480;53.116;6.734;2024-03-23T14:14:06;7.20;99.90
57652;DHT22;43480;53.116;6.734;2024-03-23T14:16:32;7.00;99.90
57652;DHT22;43480;53.116;6.734;2024-03-23T14:18:58;7.00;99.90
57652;DHT22;43480;53.116;6.734;2024-03-23T14:21:24;7.30;99.90
57652;DHT22;43480;53.116;6.734;2024-03-23T14:23:50;8.00;99.90
57652;DHT22;43480;53.116;6.734;2024-03-23T14:26:15;8.60;99.90
57652;DHT22;43480;53.116;6.734;2024-03-23T14:28:41;9.10;99.90
57652;DHT22;43480;53.116;6.734;2024-03-23T14:31:07;9.00;99.90
57652;DHT22;43480;53.116;6.734;2024-03-23T14:33:39;8.90;99.90
57652;DHT22;43480;53.116;6.734;2024-03-23T14:36:07;9.00;99.90
57652;DHT22;43480;53.116;6.734;2024-03-23T14:38:33;8.90;99.90
57652;DHT22;43480;53.116;6.734;2024-03-23T14:41:00;8.80;99.90
57652;DHT22;43480;53.116;6.734;2024-03-23T14:43:26;9.00;99.90
57652;DHT22;43480;53.116;6.734;2024-03-23T14:46:12;9.50;99.90
57652;DHT22;43480;53.116;6.734;2024-03-23T14:48:38;10.10;99.90
57652;DHT22;43480;53.116;6.734;2024-03-23T14:51:05;10.30;99.90
57652;DHT22;43480;53.116;6.734;2024-03-23T14:53:35;10.40;99.90
57652;DHT22;43480;53.116;6.734;2024-03-23T14:56:02;10.60;99.90
57652;DHT22;43480;53.116;6.734;2024-03-23T14:58:28;10.90;99.90
57652;DHT22;43480;53.116;6.734;2024-03-23T15:01:00;11.10;99.90
57652;DHT22;43480;53.116;6.734;2024-03-23T15:03:26;11.40;99.90
57652;DHT22;43480;53.116;6.734;2024-03-23T15:05:53;11.50;99.90
57652;DHT22;43480;53.116;6.734;2024-03-23T15:08:19;11.70;99.90
57652;DHT22;43480;53.116;6.734;2024-03-23T15:10:44;11.20;99.90
57652;DHT22;43480;53.116;6.734;2024-03-23T15:13:10;10.60;99.90
57652;DHT22;43480;53.116;6.734;2024-03-23T15:15:42;9.90;99.90
57652;DHT22;43480;53.116;6.734;2024-03-23T15:18:14;9.30;99.90
57652;DHT22;43480;53.116;6.734;2024-03-23T15:20:41;8.80;99.90
57652;DHT22;43480;53.116;6.734;2024-03-23T15:23:07;8.70;99.90
57652;DHT22;43480;53.116;6.734;2024-03-23T15:25:33;8.70;99.90
57652;DHT22;43480;53.116;6.734;2024-03-23T15:27:58;8.70;99.90
57652;DHT22;43480;53.116;6.734;2024-03-23T15:30:26;8.80;99.90
57652;DHT22;43480;53.116;6.734;2024-03-23T15:32:51;8.90;99.90
57652;DHT22;43480;53.116;6.734;2024-03-23T15:35:18;9.00;99.90
57652;DHT22;43480;53.116;6.734;2024-03-23T15:37:44;8.90;99.90
57652;DHT22;43480;53.116;6.734;2024-03-23T15:40:10;9.00;99.90
57652;DHT22;43480;53.116;6.734;2024-03-23T15:42:37;9.00;99.90
57652;DHT22;43480;53.116;6.734;2024-03-23T15:45:06;9.00;99.90
57652;DHT22;43480;53.116;6.734;2024-03-23T15:47:33;8.70;99.90
57652;DHT22;43480;53.116;6.734;2024-03-23T15:49:58;8.60;99.90
57652;DHT22;43480;53.116;6.734;2024-03-23T15:52:24;8.50;99.90
57652;DHT22;43480;53.116;6.734;2024-03-23T15:54:49;8.60;99.90
57652;DHT22;43480;53.116;6.734;2024-03-23T15:57:15;8.60;99.90
57652;DHT22;43480;53.116;6.734;2024-03-23T15:59:41;8.70;99.90
57652;DHT22;43480;53.116;6.734;2024-03-23T16:02:07;8.80;99.90
57652;DHT22;43480;53.116;6.734;2024-03-23T16:04:32;9.20;99.90
57652;DHT22;43480;53.116;6.734;2024-03-23T16:06:58;9.70;99.90
57652;DHT22;43480;53.116;6.734;2024-03-23T16:09:23;10.00;99.90
57652;DHT22;43480;53.116;6.734;2024-03-23T16:11:49;10.00;99.90
57652;DHT22;43480;53.116;6.734;2024-03-23T16:14:15;9.90;99.90
57652;DHT22;43480;53.116;6.734;2024-03-23T16:16:40;9.70;99.90
57652;DHT22;43480;53.116;6.734;2024-03-23T16:19:06;9.40;99.90
57652;DHT22;43480;53.116;6.734;2024-03-23T16:21:32;9.20;99.90
57652;DHT22;43480;53.116;6.734;2024-03-23T16:23:57;9.50;99.90
57652;DHT22;43480;53.116;6.734;2024-03-23T16:26:23;9.90;99.90
57652;DHT22;43480;53.116;6.734;2024-03-23T16:28:49;10.30;99.90
57652;DHT22;43480;53.116;6.734;2024-03-23T16:31:15;11.00;99.90
57652;DHT22;43480;53.116;6.734;2024-03-23T16:33:42;11.50;99.90
57652;DHT22;43480;53.116;6.734;2024-03-23T16:36:09;11.90;99.90
57652;DHT22;43480;53.116;6.734;2024-03-23T16:38:39;11.90;99.90
57652;DHT22;43480;53.116;6.734;2024-03-23T16:41:06;12.20;99.90
57652;DHT22;43480;53.116;6.734;2024-03-23T16:43:33;12.10;99.90
57652;DHT22;43480;53.116;6.734;2024-03-23T16:46:00;11.80;99.90